Time;durP1;ratioP1;P1;durP2;ratioP2;P2;SDS_P1;SDS_P2;PMS_P1;PMS_P2;Temp;Humidity;BMP_temperature;BMP_pressure;BME280_temperature;BME280_humidity;BME280_pressure;Samples;Min_cycle;Max_cycle;Signal;HPM_P1;HPM_P2
2023/09/30 00:01:27;;;;;;;4.53;4.23;;;;;;;12.34;88.95;102204.59;5034740;28;20298;-66
2023/09/30 00:03:54;;;;;;;3.40;3.30;;;;;;;12.30;88.88;102197.78;5035036;28;20195;-66
2023/09/30 00:06:21;;;;;;;3.50;3.40;;;;;;;12.26;88.88;102199.84;5034746;28;20180;-66
2023/09/30 00:08:47;;;;;;;4.40;4.20;;;;;;;12.25;88.83;102208.03;5034560;28;20212;-66
2023/09/30 00:11:17;;;;;;;4.30;4.07;;;;;;;12.24;89.17;102209.88;5034740;28;20207;-66
2023/09/30 00:13:44;;;;;;;4.83;4.53;;;;;;;12.30;89.04;102213.88;5034477;28;20598;-66
2023/09/30 00:16:10;;;;;;;3.40;3.33;;;;;;;12.40;88.10;102216.63;5034851;28;20688;-66
2023/09/30 00:18:36;;;;;;;3.73;3.43;;;;;;;12.44;87.31;102218.94;5034741;28;20644;-66
2023/09/30 00:21:03;;;;;;;4.63;3.60;;;;;;;12.52;86.50;102226.38;5034392;28;20767;-66
2023/09/30 00:23:29;;;;;;;3.53;3.23;;;;;;;12.41;86.44;102229.06;5034392;28;20184;-66
2023/09/30 00:25:56;;;;;;;4.97;4.57;;;;;;;12.16;87.50;102225.72;5034363;28;20184;-66
2023/09/30 00:28:22;;;;;;;4.40;4.17;;;;;;;12.01;88.00;102218.09;5034251;28;20204;-66
2023/09/30 00:30:50;;;;;;;3.20;3.20;;;;;;;11.96;88.55;102214.94;5034497;28;20257;-66
2023/09/30 00:33:17;;;;;;;3.97;3.77;;;;;;;11.94;88.90;102219.53;5032976;28;20188;-66
2023/09/30 00:35:43;;;;;;;4.37;4.07;;;;;;;11.96;89.10;102201.53;5034663;28;20184;-66
2023/09/30 00:38:10;;;;;;;10.13;5.30;;;;;;;11.93;89.35;102199.94;5034394;28;20254;-66
2023/09/30 00:40:37;;;;;;;4.87;4.57;;;;;;;11.92;89.59;102208.13;5033860;28;20706;-66
2023/09/30 00:43:03;;;;;;;4.20;3.40;;;;;;;11.92;90.13;102225.06;5034055;28;20195;-66
2023/09/30 00:45:30;;;;;;;3.90;3.77;;;;;;;11.91;89.74;102217.97;5033983;28;20199;-66
2023/09/30 00:47:57;;;;;;;4.43;4.33;;;;;;;11.92;89.79;102222.38;5032599;28;20235;-66
2023/09/30 00:50:23;;;;;;;4.23;3.93;;;;;;;11.89;89.90;102215.41;5034109;28;20609;-66
2023/09/30 00:52:50;;;;;;;6.40;4.67;;;;;;;11.92;90.00;102210.78;5033841;28;20246;-66
2023/09/30 00:55:18;;;;;;;4.87;4.57;;;;;;;11.90;90.05;102209.09;5034355;28;20192;-66
2023/09/30 00:57:44;;;;;;;5.33;4.13;;;;;;;11.92;90.10;102217.00;5034018;28;20192;-66
2023/09/30 01:00:12;;;;;;;8.20;4.67;;;;;;;11.92;90.08;102229.56;5034198;28;20184;-66
2023/09/30 01:02:41;;;;;;;5.63;5.13;;;;;;;11.95;90.02;102240.88;5033652;28;20191;-66
2023/09/30 01:05:08;;;;;;;8.53;5.50;;;;;;;11.99;90.40;102238.78;5033682;28;20258;-66
2023/09/30 01:07:35;;;;;;;11.57;6.53;;;;;;;12.00;90.39;102240.50;5033801;28;20802;-66
2023/09/30 01:10:02;;;;;;;6.57;6.00;;;;;;;12.03;90.35;102230.38;5033579;28;20192;-66
2023/09/30 01:12:29;;;;;;;6.57;5.77;;;;;;;12.05;90.41;102238.31;5033444;28;20208;-66
2023/09/30 01:15:00;;;;;;;6.30;5.20;;;;;;;12.09;90.53;102234.41;5033676;28;20668;-66
2023/09/30 01:17:29;;;;;;;7.60;5.80;;;;;;;12.06;90.25;102226.59;5033791;28;20259;-66
2023/09/30 01:19:58;;;;;;;5.43;4.97;;;;;;;12.07;90.03;102225.63;5033735;28;20286;-66
2023/09/30 01:22:25;;;;;;;6.07;5.50;;;;;;;12.06;90.19;102210.50;5032307;28;20253;-66
2023/09/30 01:24:51;;;;;;;8.10;5.77;;;;;;;12.04;90.71;102210.66;5033369;28;20188;-66
2023/09/30 01:27:19;;;;;;;8.20;4.90;;;;;;;12.06;90.73;102215.88;5033254;28;20737;-66
2023/09/30 01:29:45;;;;;;;4.97;4.57;;;;;;;12.07;90.59;102217.59;5033323;28;20611;-66
2023/09/30 01:32:13;;;;;;;8.07;5.97;;;;;;;12.18;89.46;102223.75;5031982;28;20219;-66
2023/09/30 01:34:41;;;;;;;5.57;5.10;;;;;;;12.09;89.68;102226.38;5033480;28;20183;-66
2023/09/30 01:37:09;;;;;;;10.00;6.47;;;;;;;12.17;89.15;102223.91;5033464;28;20199;-66
2023/09/30 01:39:36;;;;;;;4.40;4.10;;;;;;;12.14;89.05;102240.22;5033732;28;20195;-66
2023/09/30 01:42:02;;;;;;;5.73;4.83;;;;;;;12.11;89.31;102249.38;5033361;28;20691;-67
2023/09/30 01:44:32;;;;;;;10.33;5.47;;;;;;;12.06;89.04;102256.94;5033384;28;20195;-67
2023/09/30 01:46:59;;;;;;;7.27;5.37;;;;;;;12.07;89.11;102263.16;5031873;28;20215;-66
2023/09/30 01:49:26;;;;;;;4.57;4.27;;;;;;;11.86;89.57;102252.31;5033490;28;20207;-66
2023/09/30 01:51:54;;;;;;;4.77;4.57;;;;;;;11.75;90.02;102231.72;5032927;28;20211;-66
2023/09/30 01:54:20;;;;;;;9.30;5.00;;;;;;;11.73;90.42;102227.47;5037204;28;20624;-66
2023/09/30 01:56:47;;;;;;;7.30;5.13;;;;;;;11.79;90.87;102245.75;5036075;28;20202;-66
2023/09/30 01:59:13;;;;;;;8.00;4.80;;;;;;;12.16;89.86;102254.38;5035863;28;20184;-66
2023/09/30 02:01:40;;;;;;;8.20;6.00;;;;;;;12.19;88.80;102246.06;5035725;28;20732;-66
2023/09/30 02:04:07;;;;;;;12.07;5.10;;;;;;;12.14;88.85;102246.44;5037264;28;20275;-66
2023/09/30 02:06:34;;;;;;;5.37;5.07;;;;;;;12.05;89.47;102251.72;5037306;28;20222;-66
2023/09/30 02:09:00;;;;;;;8.93;4.80;;;;;;;12.05;89.24;102265.13;5036882;28;20544;-67
2023/09/30 02:11:27;;;;;;;10.33;4.73;;;;;;;11.86;89.82;102263.91;5035561;28;20212;-66
2023/09/30 02:13:54;;;;;;;6.03;5.33;;;;;;;11.71;90.47;102262.41;5035629;28;20513;-66
2023/09/30 02:16:22;;;;;;;9.47;6.07;;;;;;;11.69;90.60;102268.84;5035537;28;20198;-66
2023/09/30 02:18:50;;;;;;;6.70;5.93;;;;;;;11.66;91.21;102266.44;5036744;28;20190;-66
2023/09/30 02:21:17;;;;;;;10.43;5.97;;;;;;;11.60;91.30;102259.72;5035459;28;20266;-67
2023/09/30 02:23:47;;;;;;;7.07;5.37;;;;;;;11.59;91.57;102260.69;5036726;28;20191;-66
2023/09/30 02:26:15;;;;;;;6.73;4.50;;;;;;;11.58;91.69;102258.16;5037138;28;20184;-66
2023/09/30 02:28:41;;;;;;;6.50;5.00;;;;;;;11.56;92.11;102257.41;5036871;28;20297;-66
2023/09/30 02:31:08;;;;;;;5.23;4.97;;;;;;;11.54;92.10;102245.97;5035209;28;20261;-66
2023/09/30 02:33:38;;;;;;;6.80;5.30;;;;;;;11.50;91.98;102242.66;5036476;28;20238;-66
2023/09/30 02:36:08;;;;;;;9.50;4.80;;;;;;;11.50;92.43;102233.78;5035161;28;20292;-66
2023/09/30 02:38:38;;;;;;;5.10;4.57;;;;;;;11.48;92.19;102239.25;5037097;28;20608;-66
2023/09/30 02:41:05;;;;;;;4.60;4.40;;;;;;;11.49;92.51;102240.13;5036620;28;20556;-70
2023/09/30 02:43:32;;;;;;;6.77;5.37;;;;;;;11.51;92.42;102238.16;5036847;28;20207;-70
2023/09/30 02:45:59;;;;;;;5.90;4.40;;;;;;;11.52;92.58;102232.69;5036283;28;20211;-70
2023/09/30 02:48:25;;;;;;;5.03;4.60;;;;;;;11.58;92.39;102231.38;5036757;28;20271;-69
2023/09/30 02:50:53;;;;;;;5.77;4.93;;;;;;;11.75;90.81;102242.44;5035049;28;20294;-69
2023/09/30 02:53:20;;;;;;;4.97;4.67;;;;;;;11.72;89.25;102244.53;5036675;28;20255;-70
2023/09/30 02:55:46;;;;;;;5.57;5.17;;;;;;;11.51;89.70;102257.75;5036070;28;20195;-70
2023/09/30 02:58:13;;;;;;;7.03;4.97;;;;;;;11.50;90.33;102274.78;5036053;28;20176;-70
2023/09/30 03:00:39;;;;;;;7.67;5.63;;;;;;;11.37;90.45;102266.03;5036494;28;20265;-70
2023/09/30 03:03:06;;;;;;;7.30;5.97;;;;;;;11.36;90.74;102265.19;5035632;28;20264;-70
2023/09/30 03:05:33;;;;;;;9.87;5.80;;;;;;;11.35;91.23;102252.75;5036149;28;20172;-70
2023/09/30 03:08:00;;;;;;;6.43;6.00;;;;;;;11.36;91.40;102258.97;5036173;28;20220;-70
2023/09/30 03:10:27;;;;;;;4.80;4.50;;;;;;;11.37;91.58;102258.00;5034782;28;20184;-70
2023/09/30 03:12:54;;;;;;;5.43;5.13;;;;;;;11.37;91.55;102266.03;5036101;28;20523;-70
2023/09/30 03:15:20;;;;;;;5.20;4.83;;;;;;;11.39;91.63;102256.03;5035663;28;20675;-70
2023/09/30 03:17:47;;;;;;;5.80;5.50;;;;;;;11.44;91.68;102251.19;5035945;28;20266;-70
2023/09/30 03:20:19;;;;;;;5.60;5.20;;;;;;;11.43;91.65;102249.47;5035875;28;20172;-70
2023/09/30 03:22:49;;;;;;;5.37;5.07;;;;;;;11.41;91.60;102256.78;5035740;28;20196;-70
2023/09/30 03:25:17;;;;;;;6.07;4.70;;;;;;;11.43;91.77;102253.00;5035653;28;20183;-70
2023/09/30 03:27:47;;;;;;;5.90;4.67;;;;;;;11.51;91.72;102251.53;5035738;28;20188;-70
2023/09/30 03:30:15;;;;;;;5.00;4.60;;;;;;;11.48;91.12;102258.00;5035682;28;20200;-70
2023/09/30 03:32:42;;;;;;;6.70;4.73;;;;;;;11.67;89.56;102252.06;5035931;28;20671;-70
2023/09/30 03:35:10;;;;;;;5.73;4.73;;;;;;;11.51;89.51;102251.53;5035704;28;20208;-70
2023/09/30 03:37:37;;;;;;;11.60;5.13;;;;;;;11.53;89.37;102254.97;5035361;28;20168;-70
2023/09/30 03:40:12;;;;;;;5.50;5.07;;;;;;;11.35;89.95;102246.53;5035278;28;20172;-70
2023/09/30 03:42:39;;;;;;;5.40;5.20;;;;;;;11.25;90.51;102243.72;5035789;28;20194;-70
2023/09/30 03:45:08;;;;;;;3.87;3.77;;;;;;;11.22;90.79;102238.63;5035486;28;20176;-70
2023/09/30 03:47:37;;;;;;;3.77;3.67;;;;;;;11.19;90.91;102230.84;5035329;28;20180;-70
2023/09/30 03:50:04;;;;;;;5.53;4.87;;;;;;;11.20;91.24;102234.38;5035331;28;20195;-70
2023/09/30 03:52:34;;;;;;;7.47;5.40;;;;;;;11.23;91.50;102250.19;5034940;28;20253;-70
2023/09/30 03:55:04;;;;;;;9.90;5.60;;;;;;;11.24;91.66;102249.22;5035306;28;20176;-70
2023/09/30 03:57:33;;;;;;;5.43;5.17;;;;;;;11.25;91.54;102245.53;5035510;28;20184;-70
2023/09/30 04:00:00;;;;;;;5.40;4.93;;;;;;;11.30;91.69;102254.06;5034895;28;20621;-70
2023/09/30 04:02:37;;;;;;;4.10;3.90;;;;;;;11.65;89.63;102246.81;5034839;28;20222;-70
2023/09/30 04:05:05;;;;;;;4.73;4.53;;;;;;;11.61;88.70;102242.69;5034789;28;20270;-70
2023/09/30 04:07:32;;;;;;;8.33;5.00;;;;;;;11.38;89.30;102251.66;5034726;28;20224;-70
2023/09/30 04:10:01;;;;;;;5.67;5.37;;;;;;;11.21;89.92;102246.75;5034843;28;20294;-70
2023/09/30 04:12:28;;;;;;;10.30;4.63;;;;;;;11.15;90.34;102244.56;5034781;28;20257;-70
2023/09/30 04:14:55;;;;;;;4.90;4.07;;;;;;;11.13;90.80;102241.16;5016531;28;20203;-70
2023/09/30 04:17:23;;;;;;;7.27;5.13;;;;;;;11.15;91.05;102237.41;5034842;28;20176;-70
2023/09/30 04:19:52;;;;;;;6.10;5.50;;;;;;;11.19;91.46;102236.19;5034819;28;20538;-70
2023/09/30 04:22:19;;;;;;;5.77;5.27;;;;;;;11.21;91.37;102236.91;5034361;28;20216;-70
2023/09/30 04:24:45;;;;;;;5.57;5.00;;;;;;;11.24;91.54;102231.34;5034389;28;20253;-70
2023/09/30 04:27:12;;;;;;;4.57;4.37;;;;;;;11.25;91.86;102241.03;5034601;28;20593;-70
2023/09/30 04:29:39;;;;;;;5.17;4.77;;;;;;;11.24;91.73;102236.69;5034247;28;20606;-70
2023/09/30 04:32:06;;;;;;;4.53;4.23;;;;;;;11.26;91.78;102241.91;5034187;28;20208;-70
2023/09/30 04:34:32;;;;;;;5.50;5.30;;;;;;;11.29;91.80;102252.38;5034693;28;20196;-70
2023/09/30 04:36:59;;;;;;;7.30;6.10;;;;;;;11.31;91.90;102262.00;5034229;28;20207;-70
2023/09/30 04:39:25;;;;;;;6.77;5.83;;;;;;;11.35;92.16;102260.78;5034100;28;20242;-70
2023/09/30 04:41:52;;;;;;;8.83;5.67;;;;;;;11.37;92.10;102260.69;5034136;28;20208;-70
2023/09/30 04:44:18;;;;;;;5.90;5.50;;;;;;;11.40;92.45;102263.13;5034310;28;20721;-70
2023/09/30 04:46:45;;;;;;;9.40;6.07;;;;;;;11.41;92.14;102264.81;5034442;28;20219;-70
2023/09/30 04:49:15;;;;;;;5.30;4.80;;;;;;;11.38;92.20;102270.41;5034377;28;20212;-70
2023/09/30 04:51:42;;;;;;;9.87;5.40;;;;;;;11.37;92.20;102268.72;5034056;28;20691;-70
2023/09/30 04:54:08;;;;;;;6.87;4.90;;;;;;;11.36;92.36;102270.53;5032709;28;20188;-70
2023/09/30 04:56:35;;;;;;;6.07;5.57;;;;;;;11.36;92.50;102275.03;5034391;28;20192;-70
2023/09/30 04:59:04;;;;;;;6.97;6.20;;;;;;;11.37;92.42;102277.56;5033825;28;20247;-70
2023/09/30 05:01:30;;;;;;;6.13;5.60;;;;;;;11.40;92.19;102276.50;5033831;28;20214;-69
2023/09/30 05:03:57;;;;;;;5.50;4.97;;;;;;;11.49;91.41;102288.31;5033791;28;20187;-69
2023/09/30 05:06:24;;;;;;;4.60;4.40;;;;;;;11.38;91.03;102284.66;5033658;28;20274;-69
2023/09/30 05:08:50;;;;;;;3.97;3.70;;;;;;;11.26;91.14;102282.91;5033792;28;20588;-69
2023/09/30 05:11:17;;;;;;;5.37;4.33;;;;;;;11.20;91.20;102282.56;5033903;28;20214;-70
2023/09/30 05:13:43;;;;;;;4.47;4.17;;;;;;;11.15;91.27;102282.91;5033480;28;20246;-70
2023/09/30 05:16:10;;;;;;;4.40;3.90;;;;;;;11.13;91.37;102290.19;5034110;28;20180;-70
2023/09/30 05:18:38;;;;;;;5.97;5.43;;;;;;;11.28;90.93;102297.06;5033636;28;20188;-70
2023/09/30 05:21:04;;;;;;;5.40;4.30;;;;;;;11.19;90.77;102291.53;5033919;28;20199;-70
2023/09/30 05:23:32;;;;;;;6.53;4.10;;;;;;;11.08;90.92;102289.66;5033392;28;20282;-70
2023/09/30 05:25:58;;;;;;;4.30;4.00;;;;;;;11.03;90.95;102286.53;5033260;28;20184;-70
2023/09/30 05:28:25;;;;;;;4.67;4.37;;;;;;;11.03;91.04;102293.69;5032892;28;20207;-70
2023/09/30 05:30:53;;;;;;;5.23;4.70;;;;;;;11.03;91.18;102291.88;5033287;28;20273;-70
2023/09/30 05:33:19;;;;;;;4.17;3.97;;;;;;;11.05;91.31;102294.41;5033602;28;20715;-71
2023/09/30 05:35:47;;;;;;;6.83;6.20;;;;;;;11.07;91.35;102293.34;5033794;28;20192;-71
2023/09/30 05:38:13;;;;;;;6.20;5.60;;;;;;;11.13;91.42;102294.69;5033190;28;20242;-71
2023/09/30 05:40:41;;;;;;;5.87;5.23;;;;;;;11.15;91.53;102300.78;5033186;28;20212;-70
2023/09/30 05:43:08;;;;;;;6.03;5.53;;;;;;;11.17;91.70;102301.50;5033163;28;20195;-70
2023/09/30 05:45:34;;;;;;;13.43;5.90;;;;;;;11.21;91.63;102297.63;5033373;28;20558;-70
2023/09/30 05:48:04;;;;;;;15.67;7.20;;;;;;;11.28;91.82;102283.66;5033105;28;20648;-70
2023/09/30 05:50:36;;;;;;;6.33;5.80;;;;;;;11.29;91.50;102292.53;5033365;28;20220;-70
2023/09/30 05:53:04;;;;;;;11.03;6.07;;;;;;;11.30;91.70;102297.78;5033689;28;20172;-70
2023/09/30 05:55:31;;;;;;;5.30;5.00;;;;;;;11.31;92.08;102298.63;5033672;28;20215;-70
2023/09/30 05:57:59;;;;;;;6.07;5.60;;;;;;;11.33;91.99;102292.19;5033675;28;20206;-70
2023/09/30 06:00:30;;;;;;;7.70;7.03;;;;;;;11.36;91.77;102291.09;5032959;28;20567;-69
2023/09/30 06:02:57;;;;;;;8.00;5.30;;;;;;;11.39;91.96;102290.84;5033630;28;20176;-70
2023/09/30 06:05:26;;;;;;;6.20;5.77;;;;;;;11.40;92.14;102287.22;5033270;28;20180;-70
2023/09/30 06:07:54;;;;;;;13.43;6.50;;;;;;;11.40;92.29;102290.75;5033539;28;20250;-70
2023/09/30 06:10:20;;;;;;;5.90;5.47;;;;;;;11.41;92.17;102286.25;5033001;28;20211;-70
2023/09/30 06:12:54;;;;;;;9.10;5.40;;;;;;;11.41;92.10;102299.63;5032980;28;20188;-71
2023/09/30 06:15:25;;;;;;;4.53;4.30;;;;;;;11.45;92.13;102307.31;5032907;28;20206;-71
2023/09/30 06:17:53;;;;;;;4.60;3.93;;;;;;;11.46;92.15;102298.28;5033252;28;20226;-71
2023/09/30 06:20:22;;;;;;;4.53;4.23;;;;;;;11.51;92.25;102294.41;5032821;28;20219;-70
2023/09/30 06:22:53;;;;;;;7.17;5.90;;;;;;;11.54;92.28;102294.19;5032861;28;20253;-70
2023/09/30 06:25:21;;;;;;;9.77;6.50;;;;;;;11.59;92.01;102298.19;5033162;28;20517;-70
2023/09/30 06:27:48;;;;;;;5.97;5.23;;;;;;;11.61;92.32;102301.63;5033310;28;20218;-70
2023/09/30 06:30:16;;;;;;;6.50;5.87;;;;;;;11.67;92.14;102316.38;5032586;28;20254;-70
2023/09/30 06:32:43;;;;;;;5.90;5.40;;;;;;;11.70;91.95;102319.66;5032940;28;20188;-70
2023/09/30 06:35:11;;;;;;;16.17;6.80;;;;;;;11.71;92.54;102309.78;5032625;28;20184;-71
2023/09/30 06:37:39;;;;;;;8.80;5.77;;;;;;;11.75;92.47;102316.66;5033599;28;20188;-71
2023/09/30 06:40:08;;;;;;;6.90;6.23;;;;;;;11.78;92.20;102309.22;5036961;28;20195;-71
2023/09/30 06:42:35;;;;;;;5.10;4.70;;;;;;;11.85;92.49;102314.94;5036498;28;20188;-70
2023/09/30 06:45:05;;;;;;;6.87;5.50;;;;;;;11.90;92.27;102321.66;5034967;28;20192;-70
2023/09/30 06:47:39;;;;;;;6.40;5.83;;;;;;;11.97;92.31;102323.81;5036535;28;20315;-70
2023/09/30 06:50:16;;;;;;;12.67;5.97;;;;;;;12.03;92.42;102318.84;5036379;28;20196;-70
2023/09/30 06:52:45;;;;;;;12.53;7.07;;;;;;;12.11;92.34;102328.94;5036227;28;20234;-71
2023/09/30 06:55:16;;;;;;;12.20;7.43;;;;;;;12.17;92.61;102344.56;5036121;28;20242;-71
2023/09/30 06:57:43;;;;;;;8.00;7.03;;;;;;;12.22;92.70;102332.47;5036593;28;20191;-71
2023/09/30 07:00:12;;;;;;;20.10;9.13;;;;;;;12.30;92.49;102331.88;5036715;28;20181;-69
2023/09/30 07:02:40;;;;;;;13.53;9.53;;;;;;;12.35;92.49;102322.47;5036000;28;20184;-69
2023/09/30 07:05:14;;;;;;;13.40;9.50;;;;;;;12.44;92.60;102328.06;5036555;28;20294;-69
2023/09/30 07:07:45;;;;;;;12.27;9.83;;;;;;;12.51;92.75;102334.66;5036209;28;20176;-70
2023/09/30 07:10:12;;;;;;;21.17;11.70;;;;;;;12.63;92.23;102344.38;5036039;28;20204;-70
2023/09/30 07:12:39;;;;;;;11.50;9.87;;;;;;;12.68;92.38;102345.72;5036334;28;20199;-70
2023/09/30 07:15:07;;;;;;;18.90;10.63;;;;;;;12.74;92.58;102347.00;5035994;28;20206;-70
2023/09/30 07:17:33;;;;;;;26.57;11.97;;;;;;;12.94;92.45;102354.31;5035917;28;20211;-70
2023/09/30 07:20:02;;;;;;;15.13;10.53;;;;;;;12.93;92.51;102351.72;5035948;28;20561;-70
2023/09/30 07:22:28;;;;;;;24.27;12.03;;;;;;;13.00;92.49;102359.13;5035558;28;20200;-70
2023/09/30 07:25:14;;;;;;;23.33;10.90;;;;;;;13.07;92.29;102368.38;5035636;28;20195;-71
2023/09/30 07:27:41;;;;;;;22.70;10.50;;;;;;;13.12;92.84;102371.56;5035533;28;20184;-70
2023/09/30 07:30:08;;;;;;;23.23;11.53;;;;;;;13.23;92.35;102362.63;5035346;28;20212;-70
2023/09/30 07:32:34;;;;;;;25.90;13.50;;;;;;;13.65;90.88;102377.81;5035936;28;20187;-70
2023/09/30 07:35:01;;;;;;;26.77;14.20;;;;;;;13.59;91.10;102383.69;5035861;28;20219;-70
2023/09/30 07:37:28;;;;;;;36.27;14.60;;;;;;;13.82;90.73;102386.25;5035569;28;20191;-70
2023/09/30 07:39:54;;;;;;;25.47;14.07;;;;;;;13.88;90.14;102383.88;5035445;28;20187;-70
2023/09/30 07:42:22;;;;;;;30.67;14.20;;;;;;;13.95;90.58;102389.59;5035422;28;20240;-70
2023/09/30 07:44:49;;;;;;;22.33;13.97;;;;;;;13.95;91.12;102401.19;5035426;28;20219;-70
2023/09/30 07:47:15;;;;;;;28.97;14.73;;;;;;;14.18;89.48;102401.88;5035140;28;20192;-70
2023/09/30 07:49:41;;;;;;;27.33;14.00;;;;;;;14.27;89.26;102403.75;5034815;28;20200;-70
2023/09/30 07:52:08;;;;;;;27.80;14.30;;;;;;;14.34;88.19;102404.09;5035012;28;20552;-70
2023/09/30 07:54:35;;;;;;;30.07;13.87;;;;;;;14.39;88.15;102397.31;5035001;28;20556;-70
2023/09/30 07:57:02;;;;;;;28.40;13.80;;;;;;;14.34;88.24;102404.91;5035228;28;20251;-70
2023/09/30 07:59:28;;;;;;;26.90;12.67;;;;;;;14.40;88.37;102415.19;5035127;28;20199;-71
2023/09/30 08:01:55;;;;;;;32.07;13.40;;;;;;;14.62;87.77;102406.91;5035108;28;20721;-74
2023/09/30 08:04:22;;;;;;;29.80;14.63;;;;;;;14.59;86.79;102407.19;5035126;28;20184;-70
2023/09/30 08:06:50;;;;;;;29.03;15.50;;;;;;;14.56;86.95;102406.59;5035059;28;20316;-70
2023/09/30 08:09:18;;;;;;;23.40;14.03;;;;;;;14.61;86.68;102405.19;5034631;28;20200;-70
2023/09/30 08:11:45;;;;;;;24.13;12.13;;;;;;;14.73;87.36;102411.31;5034747;28;20216;-71
2023/09/30 08:14:11;;;;;;;28.13;12.57;;;;;;;14.79;86.13;102409.91;5034509;28;20230;-70
2023/09/30 08:16:38;;;;;;;24.80;12.77;;;;;;;14.86;86.55;102406.53;5034830;28;20199;-70
2023/09/30 08:19:05;;;;;;;22.93;12.43;;;;;;;14.94;86.47;102408.53;5034526;28;20188;-70
2023/09/30 08:21:31;;;;;;;21.03;11.90;;;;;;;15.03;85.89;102415.78;5034355;28;20762;-70
2023/09/30 08:23:59;;;;;;;29.90;12.60;;;;;;;15.15;84.66;102425.44;5034751;28;20598;-70
2023/09/30 08:26:25;;;;;;;25.20;12.93;;;;;;;15.13;85.06;102418.50;5034930;28;20658;-70
2023/09/30 08:28:52;;;;;;;26.17;16.07;;;;;;;15.26;86.31;102421.78;5034302;28;20188;-70
2023/09/30 08:31:19;;;;;;;22.17;11.90;;;;;;;15.28;85.03;102417.94;5034261;28;20208;-69
2023/09/30 08:33:46;;;;;;;21.33;10.73;;;;;;;15.26;83.78;102425.31;5034522;28;20211;-69
2023/09/30 08:36:12;;;;;;;14.77;9.07;;;;;;;15.21;83.06;102427.56;5034236;28;20179;-70
2023/09/30 08:38:40;;;;;;;16.73;10.03;;;;;;;15.26;82.98;102429.84;5034141;28;20184;-70
2023/09/30 08:41:07;;;;;;;13.33;9.97;;;;;;;15.31;84.04;102433.84;5034032;28;20200;-70
2023/09/30 08:43:38;;;;;;;19.43;10.33;;;;;;;15.37;83.59;102425.16;5034904;28;20243;-70
2023/09/30 08:46:06;;;;;;;25.50;10.83;;;;;;;15.45;82.42;102422.63;5034340;28;20259;-70
2023/09/30 08:48:34;;;;;;;20.20;9.90;;;;;;;15.51;82.53;102422.09;5034588;28;20188;-69
2023/09/30 08:51:02;;;;;;;22.33;10.03;;;;;;;15.56;82.72;102418.13;5034115;28;20228;-70
2023/09/30 08:53:29;;;;;;;13.40;9.27;;;;;;;15.70;83.22;102415.00;5034412;28;20259;-70
2023/09/30 08:55:58;;;;;;;14.53;8.83;;;;;;;15.80;82.86;102421.22;5034423;28;20539;-69
2023/09/30 08:58:32;;;;;;;14.03;8.10;;;;;;;15.79;81.66;102408.72;5034347;28;20230;-70
2023/09/30 09:00:58;;;;;;;11.07;8.30;;;;;;;15.81;82.51;102410.28;5033574;28;20204;-68
2023/09/30 09:03:29;;;;;;;8.90;7.97;;;;;;;15.76;79.01;102409.88;5045880;28;20561;-69
2023/09/30 09:05:56;;;;;;;12.70;8.33;;;;;;;15.90;81.40;102398.63;5036143;28;20602;-69
2023/09/30 09:08:25;;;;;;;13.87;8.80;;;;;;;15.92;79.76;102390.38;5049550;28;20206;-69
2023/09/30 09:10:57;;;;;;;16.60;8.33;;;;;;;16.06;77.44;102384.53;5035215;28;20230;-70
2023/09/30 09:13:24;;;;;;;20.63;10.50;;;;;;;15.93;79.64;102390.25;5034083;28;20233;-70
2023/09/30 09:16:09;;;;;;;14.97;9.03;;;;;;;15.97;79.31;102385.41;5033444;28;20663;-70
2023/09/30 09:18:37;;;;;;;8.47;7.60;;;;;;;16.03;79.42;102384.81;5033771;28;20184;-70
2023/09/30 09:21:11;;;;;;;12.93;6.70;;;;;;;16.10;80.31;102385.06;5033389;28;20299;-70
2023/09/30 09:23:46;;;;;;;12.80;7.10;;;;;;;16.61;78.30;102392.69;5033697;28;20599;-70
2023/09/30 09:26:26;;;;;;;11.73;7.03;;;;;;;16.72;77.25;102398.75;5033387;28;20685;-70
2023/09/30 09:28:57;;;;;;;8.80;6.00;;;;;;;16.66;77.25;102402.06;5033614;28;20548;-70
2023/09/30 09:31:29;;;;;;;7.10;6.07;;;;;;;16.65;75.12;102404.91;5033310;28;20241;-70
2023/09/30 09:33:57;;;;;;;15.20;6.30;;;;;;;16.86;74.63;102405.50;5033298;28;20190;-70
2023/09/30 09:36:41;;;;;;;7.20;6.43;;;;;;;16.87;74.89;102399.94;5033514;28;20187;-70
2023/09/30 09:39:12;;;;;;;12.87;8.07;;;;;;;16.83;73.71;102392.28;5033794;28;20234;-70
2023/09/30 09:41:57;;;;;;;5.90;5.50;;;;;;;16.74;73.96;102385.94;5033134;28;20211;-70
2023/09/30 09:44:27;;;;;;;7.73;5.93;;;;;;;16.86;73.63;102383.88;5034058;28;20615;-70
2023/09/30 09:46:53;;;;;;;8.47;7.23;;;;;;;16.88;72.57;102392.69;5033123;28;20195;-70
2023/09/30 09:49:21;;;;;;;10.97;7.80;;;;;;;16.84;74.76;102394.84;5033637;28;20259;-70
2023/09/30 09:51:49;;;;;;;6.73;6.03;;;;;;;16.80;75.54;102392.59;5032996;28;20212;-70
2023/09/30 09:54:16;;;;;;;7.03;6.40;;;;;;;16.95;72.64;102390.22;5033087;28;20188;-70
2023/09/30 09:56:44;;;;;;;8.83;5.70;;;;;;;17.29;71.46;102394.81;5033290;28;20200;-70
2023/09/30 09:59:12;;;;;;;9.20;6.17;;;;;;;17.45;71.70;102388.69;5032964;28;20199;-70
2023/09/30 10:01:40;;;;;;;4.60;4.33;;;;;;;17.35;67.90;102396.03;5032939;28;20211;-70
2023/09/30 10:04:07;;;;;;;6.57;4.60;;;;;;;17.28;66.96;102389.53;5033256;28;20198;-70
2023/09/30 10:06:39;;;;;;;3.80;3.60;;;;;;;17.24;64.86;102398.97;5032958;28;20279;-70
2023/09/30 10:09:11;;;;;;;10.13;3.93;;;;;;;17.17;67.31;102397.88;5033262;28;20180;-70
2023/09/30 10:11:41;;;;;;;7.53;6.40;;;;;;;17.01;68.90;102403.97;5032997;28;20223;-70
2023/09/30 10:14:14;;;;;;;9.10;5.33;;;;;;;17.17;69.85;102423.06;5035656;28;20570;-70
2023/09/30 10:16:44;;;;;;;6.40;6.20;;;;;;;17.18;71.68;102418.50;5037087;28;20660;-70
2023/09/30 10:19:12;;;;;;;6.73;5.53;;;;;;;17.20;70.33;102419.19;5036961;28;20218;-70
2023/09/30 10:21:39;;;;;;;16.03;7.73;;;;;;;17.35;68.38;102412.25;5036664;28;20203;-70
2023/09/30 10:24:27;;;;;;;6.27;5.87;;;;;;;17.34;69.26;102406.00;5036689;28;20670;-70
2023/09/30 10:27:21;;;;;;;10.13;6.53;;;;;;;17.32;69.86;102408.00;5036677;28;20275;-70
2023/09/30 10:29:53;;;;;;;4.97;4.57;;;;;;;17.40;69.43;102411.81;5036488;28;20208;-70
2023/09/30 10:32:20;;;;;;;4.03;3.83;;;;;;;17.42;68.47;102413.34;5036692;28;20706;-70
2023/09/30 10:34:52;;;;;;;6.73;4.67;;;;;;;17.54;67.59;102419.34;5036477;28;20188;-70
2023/09/30 10:37:23;;;;;;;5.30;3.90;;;;;;;17.55;67.15;102430.03;5037140;28;20184;-70
2023/09/30 10:39:55;;;;;;;4.50;4.30;;;;;;;17.87;64.76;102429.44;5036963;28;20184;-70
2023/09/30 10:42:49;;;;;;;4.37;4.20;;;;;;;17.86;68.01;102425.06;5036389;28;20215;-70
2023/09/30 10:45:43;;;;;;;4.27;4.17;;;;;;;17.90;65.72;102414.78;5036299;28;20527;-70
2023/09/30 10:48:25;;;;;;;5.17;4.90;;;;;;;18.25;68.27;102420.91;5036007;28;20204;-70
2023/09/30 10:50:58;;;;;;;4.90;4.03;;;;;;;17.87;63.67;102420.47;5036635;28;20582;-71
2023/09/30 10:53:27;;;;;;;4.37;3.97;;;;;;;17.76;65.48;102422.44;5036806;28;20642;-71
2023/09/30 10:55:58;;;;;;;5.40;5.03;;;;;;;17.51;67.86;102417.81;5036289;28;20191;-71
2023/09/30 10:58:39;;;;;;;6.80;5.40;;;;;;;17.43;66.59;102422.28;5036174;28;20199;-71
2023/09/30 11:01:05;;;;;;;9.87;5.93;;;;;;;17.44;66.75;102408.59;5036591;28;20211;-70
2023/09/30 11:03:32;;;;;;;7.87;6.03;;;;;;;17.58;67.32;102404.53;5036472;28;20652;-70
2023/09/30 11:05:59;;;;;;;9.13;6.37;;;;;;;17.65;64.85;102394.81;5035917;28;20270;-71
2023/09/30 11:08:30;;;;;;;6.93;6.27;;;;;;;17.53;64.49;102402.25;5036179;28;20188;-71
2023/09/30 11:10:56;;;;;;;12.70;6.93;;;;;;;17.66;66.57;102402.75;5035725;28;20215;-70
2023/09/30 11:13:23;;;;;;;19.63;13.13;;;;;;;17.69;66.03;102402.47;5036032;28;20184;-70
2023/09/30 11:16:00;;;;;;;6.40;5.80;;;;;;;17.48;65.71;102403.75;5035887;28;20188;-71
2023/09/30 11:18:27;;;;;;;6.03;5.33;;;;;;;17.46;64.42;102389.53;5035994;28;20168;-71
2023/09/30 11:21:07;;;;;;;5.53;5.03;;;;;;;17.50;64.03;102377.41;5035632;28;20215;-70
2023/09/30 11:23:35;;;;;;;4.50;4.33;;;;;;;17.56;65.05;102374.94;5035910;28;20168;-70
2023/09/30 11:26:01;;;;;;;5.80;5.27;;;;;;;17.86;66.57;102370.97;5034478;28;20192;-72
2023/09/30 11:28:42;;;;;;;5.77;5.30;;;;;;;18.11;63.29;102374.66;5035544;28;20660;-71